createdAt,value
2022-10-15T00:04:54.545Z,13.20
2022-10-15T00:12:29.577Z,13.16
2022-10-15T00:20:03.174Z,13.12
2022-10-15T00:27:38.867Z,13.14
2022-10-15T00:35:12.578Z,13.13
2022-10-15T00:42:47.549Z,13.09
2022-10-15T00:50:21.852Z,13.11
2022-10-15T00:57:59.698Z,13.16
2022-10-15T01:05:34.551Z,13.16
2022-10-15T01:13:20.463Z,13.19
2022-10-15T01:21:11.211Z,13.20
2022-10-15T01:28:54.517Z,13.21
2022-10-15T01:36:35.535Z,13.23
2022-10-15T01:44:13.035Z,13.24
2022-10-15T01:51:50.821Z,13.26
2022-10-15T01:59:30.122Z,13.26
2022-10-15T02:07:15.589Z,13.26
2022-10-15T02:14:53.881Z,13.24
2022-10-15T02:22:35.725Z,13.23
2022-10-15T02:30:11.213Z,13.25
2022-10-15T02:37:52.759Z,13.28
2022-10-15T02:45:26.423Z,13.26
2022-10-15T02:53:02.896Z,13.23
2022-10-15T03:00:37.053Z,13.21
2022-10-15T03:08:12.048Z,13.21
2022-10-15T03:15:45.611Z,13.21
2022-10-15T03:23:20.854Z,13.21
2022-10-15T03:30:54.490Z,13.18
2022-10-15T03:38:29.531Z,13.14
2022-10-15T03:46:03.657Z,13.09
2022-10-15T03:53:38.814Z,13.07
2022-10-15T04:01:13.992Z,13.04
2022-10-15T04:08:49.443Z,13.03
2022-10-15T04:16:23.395Z,13.00
2022-10-15T04:23:58.639Z,12.95
2022-10-15T04:31:32.410Z,12.92
2022-10-15T04:39:09.739Z,12.92
2022-10-15T04:46:45.938Z,12.89
2022-10-15T04:54:21.332Z,12.88
2022-10-15T05:01:55.171Z,12.86
2022-10-15T05:09:30.907Z,12.82
2022-10-15T05:17:04.605Z,12.75
2022-10-15T05:24:39.623Z,12.70
2022-10-15T05:32:14.631Z,12.62
2022-10-15T05:39:49.619Z,12.57
2022-10-15T05:47:23.580Z,12.47
2022-10-15T05:54:58.874Z,12.36
2022-10-15T06:02:33.272Z,12.30
2022-10-15T06:10:09.280Z,12.28
2022-10-15T06:17:42.913Z,12.27
2022-10-15T06:25:17.905Z,12.32
2022-10-15T06:32:51.912Z,12.45
2022-10-15T06:40:27.073Z,12.51
2022-10-15T06:48:01.102Z,12.52
2022-10-15T06:55:40.184Z,12.55
2022-10-15T07:03:14.716Z,12.60
2022-10-15T07:10:49.838Z,12.74
2022-10-15T07:18:23.346Z,12.88
2022-10-15T07:26:00.096Z,13.00
2022-10-15T07:33:34.863Z,13.26
2022-10-15T07:41:11.941Z,13.37
2022-10-15T07:48:45.783Z,13.50
2022-10-15T07:56:21.665Z,13.85
2022-10-15T08:03:55.286Z,14.20
2022-10-15T08:11:30.623Z,14.37
2022-10-15T08:19:04.602Z,14.58
2022-10-15T08:26:39.870Z,14.78
2022-10-15T08:34:13.580Z,15.12
2022-10-15T08:41:51.712Z,15.68
2022-10-15T08:49:35.043Z,16.01
2022-10-15T08:57:23.345Z,16.32
2022-10-15T09:05:08.041Z,16.36
2022-10-15T09:12:51.404Z,16.28
2022-10-15T09:20:31.429Z,16.38
2022-10-15T09:28:11.394Z,16.46
2022-10-15T09:35:51.108Z,16.81
2022-10-15T09:43:31.178Z,16.81
2022-10-15T09:51:09.335Z,16.71
2022-10-15T09:58:51.184Z,16.64
2022-10-15T10:06:25.692Z,16.69
2022-10-15T10:14:02.280Z,16.78
2022-10-15T10:21:37.413Z,16.92
2022-10-15T10:29:32.923Z,16.94
2022-10-15T10:37:10.184Z,16.93
2022-10-15T10:44:47.051Z,17.06
2022-10-15T10:52:24.206Z,17.15
2022-10-15T10:59:59.438Z,17.20
2022-10-15T11:07:42.533Z,17.29
2022-10-15T11:15:29.692Z,17.38
2022-10-15T11:23:16.927Z,17.43
2022-10-15T11:31:00.000Z,17.59
2022-10-15T11:38:43.237Z,17.64
2022-10-15T11:46:25.970Z,17.80
2022-10-15T11:54:18.771Z,17.77
2022-10-15T12:01:59.532Z,17.84
2022-10-15T12:09:37.932Z,17.95
2022-10-15T12:17:23.093Z,17.94
2022-10-15T12:24:57.602Z,18.03
2022-10-15T12:32:39.122Z,18.15
2022-10-15T12:40:28.261Z,18.16
2022-10-15T12:48:31.412Z,18.11
2022-10-15T12:56:22.774Z,18.12
2022-10-15T13:04:00.208Z,18.03
2022-10-15T13:11:38.348Z,18.03
2022-10-15T13:19:20.679Z,18.06
2022-10-15T13:26:55.793Z,17.99
2022-10-15T13:34:33.224Z,18.02
2022-10-15T13:42:14.960Z,18.07
2022-10-15T13:49:50.183Z,18.02
2022-10-15T13:57:23.922Z,18.07
2022-10-15T14:05:16.355Z,18.03
2022-10-15T14:12:52.125Z,18.03
2022-10-15T14:20:27.888Z,18.05
2022-10-15T14:28:02.379Z,18.04
2022-10-15T14:35:38.715Z,17.98
2022-10-15T14:43:18.036Z,17.94
2022-10-15T14:50:53.639Z,17.86
2022-10-15T14:58:29.677Z,17.80
2022-10-15T15:06:04.787Z,17.73
2022-10-15T15:13:40.893Z,17.74
2022-10-15T15:21:18.745Z,17.69
2022-10-15T15:28:52.652Z,17.63
2022-10-15T15:36:27.766Z,17.55
2022-10-15T15:44:01.830Z,17.42
2022-10-15T15:51:36.818Z,17.32
2022-10-15T15:59:10.264Z,17.12
2022-10-15T16:06:48.754Z,16.98
2022-10-15T16:14:22.465Z,16.80
2022-10-15T16:21:57.703Z,16.62
2022-10-15T16:29:31.355Z,16.42
2022-10-15T16:37:08.310Z,16.26
2022-10-15T16:44:42.042Z,16.12
2022-10-15T16:52:17.314Z,15.97
2022-10-15T16:59:51.534Z,15.82
2022-10-15T17:07:27.028Z,15.64
2022-10-15T17:15:01.081Z,15.50
2022-10-15T17:22:37.418Z,15.37
2022-10-15T17:30:11.967Z,15.22
2022-10-15T17:37:48.443Z,15.10
2022-10-15T17:45:22.834Z,14.99
2022-10-15T17:52:59.234Z,14.92
2022-10-15T18:00:33.070Z,14.87
2022-10-15T18:08:09.096Z,14.79
2022-10-15T18:15:46.111Z,14.75
2022-10-15T18:23:21.576Z,14.70
2022-10-15T18:30:55.283Z,14.64
2022-10-15T18:38:30.898Z,14.59
2022-10-15T18:46:04.863Z,14.52
2022-10-15T18:53:41.442Z,14.51
2022-10-15T19:01:26.214Z,14.50
2022-10-15T19:09:02.912Z,14.47
2022-10-15T19:16:37.318Z,14.45
2022-10-15T19:24:12.715Z,14.40
2022-10-15T19:31:48.365Z,14.35
2022-10-15T19:39:25.706Z,14.34
2022-10-15T19:46:59.407Z,14.31
2022-10-15T19:54:35.620Z,14.33
2022-10-15T20:02:11.709Z,14.34
2022-10-15T20:09:46.970Z,14.36
2022-10-15T20:17:20.639Z,14.40
2022-10-15T20:24:55.742Z,14.38
2022-10-15T20:32:34.892Z,14.34
2022-10-15T20:40:10.998Z,14.31
2022-10-15T20:47:49.687Z,14.36
2022-10-15T20:55:25.529Z,14.39
2022-10-15T21:02:59.472Z,14.37
2022-10-15T21:10:34.915Z,14.37
2022-10-15T21:18:08.658Z,14.36
2022-10-15T21:25:43.780Z,14.41
2022-10-15T21:33:17.555Z,14.41
2022-10-15T21:40:53.177Z,14.39
2022-10-15T21:48:28.855Z,14.38
2022-10-15T21:56:05.654Z,14.37
2022-10-15T22:03:39.832Z,14.40
2022-10-15T22:11:17.193Z,14.39
2022-10-15T22:18:51.308Z,14.38
2022-10-15T22:26:28.727Z,14.38
2022-10-15T22:34:02.624Z,14.34
2022-10-15T22:41:40.058Z,14.34
2022-10-15T22:49:16.226Z,14.30
2022-10-15T22:56:51.595Z,14.30
2022-10-15T23:04:25.275Z,14.27
2022-10-15T23:12:00.348Z,14.26
2022-10-15T23:19:34.095Z,14.25
2022-10-15T23:27:10.140Z,14.28
2022-10-15T23:34:43.803Z,14.30
2022-10-15T23:42:18.913Z,14.27
2022-10-15T23:49:53.254Z,14.26
2022-10-15T23:57:28.476Z,14.22
